createdAt,value
2022-12-17T00:00:04.632Z,100829.78
2022-12-17T00:05:27.212Z,100830.56
2022-12-17T00:10:48.058Z,100829.63
2022-12-17T00:16:11.870Z,100841.59
2022-12-17T00:21:34.235Z,100849.19
2022-12-17T00:26:54.829Z,100851.75
2022-12-17T00:32:16.770Z,100854.25
2022-12-17T00:37:37.909Z,100865.28
2022-12-17T00:42:58.731Z,100863.53
2022-12-17T00:48:19.348Z,100871.19
2022-12-17T00:53:41.846Z,100866.09
2022-12-17T00:59:02.569Z,100870.34
2022-12-17T01:04:23.766Z,100876.31
2022-12-17T01:09:45.827Z,100872.97
2022-12-17T01:15:06.545Z,100879.00
2022-12-17T01:20:27.555Z,100883.34
2022-12-17T01:25:49.886Z,100888.56
2022-12-17T01:31:10.700Z,100894.56
2022-12-17T01:36:49.418Z,100894.47
2022-12-17T01:42:12.350Z,100900.41
2022-12-17T01:47:32.722Z,100906.28
2022-12-17T01:52:53.229Z,100917.34
2022-12-17T01:58:15.010Z,100916.50
2022-12-17T02:03:37.767Z,100923.28
2022-12-17T02:09:09.278Z,100919.75
2022-12-17T02:14:38.342Z,100918.06
2022-12-17T02:20:11.460Z,100918.84
2022-12-17T02:25:41.214Z,100925.66
2022-12-17T02:31:03.386Z,100923.91
2022-12-17T02:36:25.632Z,100931.50
2022-12-17T02:41:48.378Z,100937.41
2022-12-17T02:47:13.324Z,100929.81
2022-12-17T02:52:38.785Z,100934.94
2022-12-17T02:57:59.427Z,100945.28
2022-12-17T03:03:21.552Z,100945.28
2022-12-17T03:08:42.514Z,100955.41
2022-12-17T03:14:03.416Z,100947.72
2022-12-17T03:19:25.575Z,100958.97
2022-12-17T03:24:46.749Z,100957.38
2022-12-17T03:30:07.373Z,100970.25
2022-12-17T03:35:29.391Z,100974.50
2022-12-17T03:40:49.898Z,100974.56
2022-12-17T03:46:11.776Z,100962.75
2022-12-17T03:51:33.991Z,100974.06
2022-12-17T03:56:54.495Z,100977.81
2022-12-17T04:02:15.797Z,100984.81
2022-12-17T04:07:37.736Z,100991.00
2022-12-17T04:12:58.239Z,101001.41
2022-12-17T04:18:18.929Z,101008.28
2022-12-17T04:23:41.056Z,101010.00
2022-12-17T04:29:01.614Z,101014.94
2022-12-17T04:34:22.364Z,101022.41
2022-12-17T04:39:44.405Z,101020.53
2022-12-17T04:45:05.166Z,101039.09
2022-12-17T04:50:26.094Z,101049.97
2022-12-17T04:55:48.279Z,101044.69
2022-12-17T05:01:10.651Z,101048.91
2022-12-17T05:06:31.039Z,101051.44
2022-12-17T05:11:53.401Z,101057.38
2022-12-17T05:17:13.964Z,101054.59
2022-12-17T05:22:34.504Z,101063.97
2022-12-17T05:27:56.633Z,101072.34
2022-12-17T05:33:18.223Z,101080.84
2022-12-17T05:38:38.890Z,101080.69
2022-12-17T05:44:00.611Z,101084.03
2022-12-17T05:49:21.498Z,101090.66
2022-12-17T05:54:42.319Z,101106.06
2022-12-17T06:00:04.347Z,101105.25
2022-12-17T06:05:25.771Z,101105.97
2022-12-17T06:10:46.757Z,101111.97
2022-12-17T06:16:09.716Z,101125.53
2022-12-17T06:21:30.328Z,101138.34
2022-12-17T06:26:51.143Z,101127.13
2022-12-17T06:32:13.224Z,101132.25
2022-12-17T06:37:33.815Z,101139.88
2022-12-17T06:42:54.225Z,101148.28
2022-12-17T06:48:21.675Z,101150.75
2022-12-17T06:53:38.929Z,101161.00
2022-12-17T06:59:14.323Z,101161.00
2022-12-17T07:04:36.833Z,101171.19
2022-12-17T07:09:57.324Z,101174.53
2022-12-17T07:15:17.694Z,101174.47
2022-12-17T07:20:39.546Z,101191.50
2022-12-17T07:26:00.731Z,101201.63
2022-12-17T07:31:21.245Z,101195.88
2022-12-17T07:36:43.625Z,101200.94
2022-12-17T07:42:04.139Z,101210.22
2022-12-17T07:47:24.960Z,101230.66
2022-12-17T07:53:01.863Z,101242.53
2022-12-17T07:58:24.931Z,101241.53
2022-12-17T08:03:46.513Z,101246.59
2022-12-17T08:09:08.509Z,101259.44
2022-12-17T08:14:29.266Z,101272.19
2022-12-17T08:19:49.842Z,101270.34
2022-12-17T08:25:12.535Z,101291.84
2022-12-17T08:30:33.422Z,101301.25
2022-12-17T08:35:53.950Z,101310.56
2022-12-17T08:41:20.088Z,101319.03
2022-12-17T08:46:41.422Z,101315.44
2022-12-17T08:52:02.343Z,101323.94
2022-12-17T08:57:31.903Z,101316.97
2022-12-17T09:02:55.982Z,101325.38
2022-12-17T09:08:22.804Z,101320.13
2022-12-17T09:13:45.190Z,101329.50
2022-12-17T09:19:08.797Z,101333.69
2022-12-17T09:24:32.277Z,101330.13
2022-12-17T09:29:55.312Z,101342.06
2022-12-17T09:35:16.386Z,101343.69
2022-12-17T09:40:47.355Z,101336.56
2022-12-17T09:46:16.536Z,101333.81
2022-12-17T09:51:42.186Z,101349.16
2022-12-17T09:57:03.310Z,101354.91
2022-12-17T10:02:31.792Z,101354.63
2022-12-17T10:07:57.437Z,101353.78
2022-12-17T10:13:20.159Z,101349.41
2022-12-17T10:18:43.320Z,101350.06
2022-12-17T10:24:05.756Z,101352.50
2022-12-17T10:29:48.120Z,101353.25
2022-12-17T10:35:29.103Z,101356.56
2022-12-17T10:40:54.398Z,101366.97
2022-12-17T10:46:16.588Z,101367.81
2022-12-17T10:51:48.024Z,101370.22
2022-12-17T10:57:21.681Z,101376.25
2022-12-17T11:02:51.069Z,101378.13
2022-12-17T11:08:32.762Z,101388.84
2022-12-17T11:14:01.984Z,101400.13
2022-12-17T11:19:48.022Z,101415.75
2022-12-17T11:25:26.045Z,101411.56
2022-12-17T11:31:02.330Z,101411.41
2022-12-17T11:36:38.702Z,101404.63
2022-12-17T11:42:18.566Z,101406.41
2022-12-17T11:47:48.430Z,101411.50
2022-12-17T11:53:26.010Z,101412.44
2022-12-17T11:58:58.564Z,101407.59
2022-12-17T12:04:35.700Z,101416.97
2022-12-17T12:10:07.067Z,101419.59
2022-12-17T12:15:46.828Z,101420.25
2022-12-17T12:21:28.417Z,101418.50
2022-12-17T12:27:07.425Z,101429.78
2022-12-17T12:32:56.922Z,101431.31
2022-12-17T12:38:25.240Z,101435.59
2022-12-17T12:43:48.711Z,101446.34
2022-12-17T12:49:28.692Z,101457.53
2022-12-17T12:54:51.260Z,101466.06
2022-12-17T13:05:40.485Z,101468.84
2022-12-17T13:10:47.903Z,101483.31
2022-12-17T13:15:58.541Z,101471.34
2022-12-17T13:21:06.881Z,101474.72
2022-12-17T13:26:25.411Z,101468.84
2022-12-17T13:31:38.261Z,101485.16
2022-12-17T13:36:54.407Z,101485.13
2022-12-17T13:42:03.029Z,101485.25
2022-12-17T13:47:08.379Z,101502.47
2022-12-17T13:52:23.495Z,101497.56
2022-12-17T13:57:27.977Z,101501.97
2022-12-17T14:02:34.449Z,101508.78
2022-12-17T14:07:41.953Z,101521.56
2022-12-17T14:12:55.076Z,101525.03
2022-12-17T14:18:04.010Z,101518.34
2022-12-17T14:23:16.928Z,101538.19
2022-12-17T14:28:26.411Z,101529.81
2022-12-17T14:33:37.524Z,101532.34
2022-12-17T14:38:56.464Z,101543.47
2022-12-17T14:44:05.033Z,101540.22
2022-12-17T14:49:20.387Z,101550.59
2022-12-17T14:54:34.297Z,101556.69
2022-12-17T14:59:44.335Z,101563.63
2022-12-17T15:05:07.391Z,101571.28
2022-12-17T15:10:22.652Z,101571.22
2022-12-17T15:15:26.854Z,101567.09
2022-12-17T15:20:36.630Z,101568.78
2022-12-17T15:25:49.315Z,101580.75
2022-12-17T15:30:57.567Z,101587.66
2022-12-17T15:36:03.677Z,101588.47
2022-12-17T15:41:30.733Z,101585.81
2022-12-17T15:46:37.538Z,101583.31
2022-12-17T15:51:41.801Z,101592.66
2022-12-17T15:56:56.847Z,101591.06
2022-12-17T16:02:01.276Z,101596.97
2022-12-17T16:07:08.263Z,101598.59
2022-12-17T16:12:16.598Z,101604.63
2022-12-17T16:17:26.233Z,101606.38
2022-12-17T16:22:34.180Z,101604.72
2022-12-17T16:27:42.007Z,101609.06
2022-12-17T16:32:47.764Z,101606.56
2022-12-17T16:37:58.338Z,101610.06
2022-12-17T16:43:12.046Z,101613.53
2022-12-17T16:48:21.033Z,101611.09
2022-12-17T16:53:32.607Z,101615.34
2022-12-17T16:58:43.616Z,101634.22
2022-12-17T17:03:50.114Z,101632.44
2022-12-17T17:08:58.778Z,101640.16
2022-12-17T17:14:14.546Z,101651.22
2022-12-17T17:19:30.373Z,101648.84
2022-12-17T17:24:36.370Z,101647.09
2022-12-17T17:29:45.170Z,101648.03
2022-12-17T17:34:53.331Z,101644.66
2022-12-17T17:40:12.280Z,101640.41
2022-12-17T17:45:23.808Z,101656.03
2022-12-17T17:50:36.324Z,101659.59
2022-12-17T17:55:45.636Z,101664.78
2022-12-17T18:01:08.149Z,101669.97
2022-12-17T18:06:16.783Z,101668.28
2022-12-17T18:11:24.341Z,101682.00
2022-12-17T18:16:35.123Z,101687.16
2022-12-17T18:21:40.665Z,101692.28
2022-12-17T18:26:57.279Z,101695.72
2022-12-17T18:32:06.243Z,101694.91
2022-12-17T18:37:11.437Z,101699.34
2022-12-17T18:42:37.089Z,101719.09
2022-12-17T18:47:45.131Z,101724.28
2022-12-17T18:52:54.361Z,101726.00
2022-12-17T18:57:58.989Z,101726.09
2022-12-17T19:03:07.776Z,101724.41
2022-12-17T19:08:16.501Z,101733.03
2022-12-17T19:13:27.481Z,101745.00
2022-12-17T19:18:33.499Z,101733.09
2022-12-17T19:23:40.917Z,101747.66
2022-12-17T19:28:48.089Z,101754.53
2022-12-17T19:34:02.894Z,101752.88
2022-12-17T19:39:14.469Z,101755.44
2022-12-17T19:44:21.527Z,101762.34
2022-12-17T19:49:35.834Z,101753.78
2022-12-17T19:54:54.039Z,101764.06
2022-12-17T20:00:00.415Z,101765.72
2022-12-17T20:05:14.481Z,101770.09
2022-12-17T20:10:21.038Z,101769.25
2022-12-17T20:15:40.248Z,101772.69
2022-12-17T20:20:53.192Z,101778.75
2022-12-17T20:26:07.825Z,101773.63
2022-12-17T20:31:21.203Z,101779.66
2022-12-17T20:36:33.522Z,101775.41
2022-12-17T20:41:49.154Z,101776.28
2022-12-17T20:46:55.170Z,101779.72
2022-12-17T20:52:01.459Z,101775.56
2022-12-17T20:57:19.018Z,101783.25
2022-12-17T21:02:25.550Z,101788.34
2022-12-17T21:07:37.734Z,101792.69
2022-12-17T21:12:58.849Z,101796.97
2022-12-17T21:18:03.024Z,101800.47
2022-12-17T21:23:13.840Z,101806.47
2022-12-17T21:28:26.503Z,101810.81
2022-12-17T21:33:32.322Z,101814.25
2022-12-17T21:38:49.642Z,101816.00
2022-12-17T21:43:58.737Z,101830.56
2022-12-17T21:49:06.034Z,101841.69
2022-12-17T21:54:20.261Z,101839.16
2022-12-17T21:59:34.580Z,101832.44
2022-12-17T22:04:39.880Z,101838.41
2022-12-17T22:09:59.962Z,101836.72
2022-12-17T22:15:13.417Z,101846.97
2022-12-17T22:20:27.253Z,101856.38
2022-12-17T22:25:40.949Z,101871.69
2022-12-17T22:31:02.940Z,101868.31
2022-12-17T22:38:22.066Z,101869.16
2022-12-17T22:44:43.118Z,101877.69
2022-12-17T22:47:24.403Z,101868.31
2022-12-17T22:52:36.486Z,101886.22
2022-12-17T22:57:47.372Z,101876.84
2022-12-17T23:02:57.885Z,101878.56
2022-12-17T23:08:05.115Z,101885.38
2022-12-17T23:13:18.045Z,101890.47
2022-12-17T23:18:36.417Z,101872.59
2022-12-17T23:23:45.679Z,101881.13
2022-12-17T23:29:06.990Z,101887.97
2022-12-17T23:34:18.619Z,101890.50
2022-12-17T23:39:25.782Z,101899.84
2022-12-17T23:44:44.058Z,101909.22
2022-12-17T23:50:02.733Z,101915.19
2022-12-17T23:55:12.079Z,101912.59
